Time;durP1;ratioP1;P1;durP2;ratioP2;P2;SDS_P1;SDS_P2;PMS_P1;PMS_P2;Temp;Humidity;BMP_temperature;BMP_pressure;BME280_temperature;BME280_humidity;BME280_pressure;Samples;Min_cycle;Max_cycle;Signal;HPM_P1;HPM_P2
2021/12/14 00:01:54;;;;;;;21.10;10.35;;;;;;;-0.34;100.00;100912.78;6323441;28;20451;-72
2021/12/14 00:04:59;;;;;;;24.15;10.88;;;;;;;-0.21;98.71;100910.19;6322567;28;20040;-72
2021/12/14 00:08:02;;;;;;;24.35;11.10;;;;;;;-0.05;98.75;100913.53;6298276;28;20131;-72
2021/12/14 00:17:41;;;;;;;26.25;9.75;;;;;;;0.03;98.64;100915.22;6296570;28;20053;-72
2021/12/14 00:20:50;;;;;;;23.40;10.65;;;;;;;0.09;97.97;100923.75;6299312;28;20123;-73
2021/12/14 00:24:09;;;;;;;21.63;10.68;;;;;;;-0.03;99.07;100910.97;6332055;28;20051;-72
2021/12/14 00:27:12;;;;;;;22.85;11.00;;;;;;;0.09;98.44;100921.19;6283392;28;20404;-72
2021/12/14 00:30:13;;;;;;;22.83;10.43;;;;;;;0.13;98.22;100915.19;6298952;28;20042;-73
2021/12/14 00:33:18;;;;;;;23.33;10.93;;;;;;;0.11;97.96;100916.91;6297809;28;20048;-73
2021/12/14 00:36:19;;;;;;;24.27;11.48;;;;;;;0.22;97.70;100937.38;6298766;28;20500;-73
2021/12/14 00:39:20;;;;;;;28.33;11.57;;;;;;;0.26;96.35;100927.97;6298762;28;20059;-72
2021/12/14 00:42:21;;;;;;;23.80;11.63;;;;;;;0.09;97.93;100946.00;6298608;28;20119;-72
2021/12/14 00:45:24;;;;;;;25.10;11.77;;;;;;;0.33;97.23;100935.63;6298029;28;20444;-72
2021/12/14 00:48:25;;;;;;;26.30;11.55;;;;;;;0.28;97.12;100945.06;6313548;28;20051;-72
2021/12/14 00:51:28;;;;;;;22.60;11.32;;;;;;;0.34;96.93;100942.47;6322206;28;20056;-73
2021/12/14 00:54:29;;;;;;;25.15;12.88;;;;;;;0.37;97.42;100950.16;6323515;28;20040;-72
2021/12/14 00:57:31;;;;;;;24.52;11.35;;;;;;;0.48;97.50;100951.81;6303896;28;20037;-72
2021/12/14 01:00:37;;;;;;;29.13;11.27;;;;;;;0.48;96.46;100944.97;6301905;28;20411;-73
2021/12/14 01:03:41;;;;;;;19.17;10.07;;;;;;;0.36;95.91;100951.00;6321985;28;20072;-72
2021/12/14 01:06:46;;;;;;;23.73;11.98;;;;;;;0.44;96.69;100945.84;6323175;28;20039;-72
2021/12/14 01:09:50;;;;;;;23.08;10.55;;;;;;;0.41;97.47;100943.28;6322927;28;20036;-73
2021/12/14 01:12:55;;;;;;;24.58;11.50;;;;;;;0.42;97.39;100946.72;6323056;28;20545;-72
2021/12/14 01:16:16;;;;;;;21.55;10.77;;;;;;;0.35;96.12;100945.88;6322770;28;20122;-73
2021/12/14 01:19:26;;;;;;;27.15;11.88;;;;;;;0.21;98.48;100956.22;6322772;28;20048;-73
2021/12/14 01:25:37;;;;;;;26.30;12.52;;;;;;;0.36;97.48;100950.16;6297843;28;20146;-73
2021/12/14 01:28:41;;;;;;;25.30;12.45;;;;;;;0.45;97.70;100946.69;6296029;28;20043;-73
2021/12/14 01:31:43;;;;;;;25.55;12.93;;;;;;;0.46;98.17;100943.28;6295958;28;20067;-73
2021/12/14 01:34:44;;;;;;;24.73;12.30;;;;;;;0.42;97.69;100944.16;6296283;28;20040;-72
2021/12/14 01:38:00;;;;;;;28.13;12.65;;;;;;;0.45;98.01;100941.56;6295902;28;20087;-72
2021/12/14 01:41:07;;;;;;;24.63;11.73;;;;;;;0.40;98.11;100947.56;6297055;28;20041;-73
2021/12/14 01:44:09;;;;;;;23.67;11.60;;;;;;;0.35;98.91;100946.75;6297125;28;20094;-73
2021/12/14 01:47:23;;;;;;;30.95;12.75;;;;;;;0.38;99.24;100946.72;6296900;28;20047;-73
2021/12/14 01:50:30;;;;;;;28.15;12.68;;;;;;;0.42;99.35;100944.16;6295637;28;20086;-73
2021/12/14 01:53:34;;;;;;;27.60;12.82;;;;;;;0.49;98.71;100945.81;6296877;28;20400;-73
2021/12/14 01:56:35;;;;;;;31.23;13.25;;;;;;;0.46;99.37;100941.56;6295555;28;20041;-73
2021/12/14 01:59:39;;;;;;;28.90;13.63;;;;;;;0.53;99.04;100939.81;6294698;28;20048;-73
2021/12/14 02:02:42;;;;;;;26.10;12.65;;;;;;;0.51;99.35;100939.81;6296576;28;20109;-73
2021/12/14 02:05:48;;;;;;;33.13;14.25;;;;;;;0.51;100.00;100937.22;6296577;28;20070;-73
2021/12/14 02:09:00;;;;;;;23.52;12.40;;;;;;;0.51;100.00;100932.09;6296500;28;20105;-72
2021/12/14 02:12:18;;;;;;;26.15;13.35;;;;;;;0.59;99.28;100939.75;6311009;28;20101;-72
2021/12/14 02:15:31;;;;;;;32.20;13.75;;;;;;;0.59;98.38;100939.75;6321643;28;20342;-72
2021/12/14 02:18:33;;;;;;;24.40;12.02;;;;;;;0.57;98.07;100938.91;6321297;28;20044;-73
2021/12/14 02:21:34;;;;;;;29.17;12.68;;;;;;;0.63;97.75;100944.03;6320194;28;20044;-72
2021/12/14 02:24:38;;;;;;;27.60;12.73;;;;;;;0.57;96.51;100937.19;6321264;28;20048;-72
2021/12/14 02:27:42;;;;;;;26.20;13.10;;;;;;;0.58;96.12;100936.34;6321320;28;20453;-73
2021/12/14 02:30:47;;;;;;;28.10;12.15;;;;;;;0.58;96.41;100935.50;6320047;28;20166;-72
2021/12/14 02:33:50;;;;;;;28.63;12.55;;;;;;;0.69;95.54;100938.84;6321572;28;20036;-72
2021/12/14 02:36:52;;;;;;;28.63;12.70;;;;;;;0.63;96.74;100926.03;6321145;28;20106;-72
2021/12/14 02:40:03;;;;;;;31.20;12.50;;;;;;;0.64;95.45;100932.91;6320102;28;20142;-72
2021/12/14 02:43:04;;;;;;;23.55;12.35;;;;;;;0.60;96.38;100929.50;6321177;28;20071;-72
2021/12/14 02:46:24;;;;;;;26.92;13.13;;;;;;;0.53;95.11;100922.66;6321249;28;20048;-74
2021/12/14 02:49:30;;;;;;;26.35;12.55;;;;;;;0.70;94.20;100921.72;6319668;28;20510;-73
2021/12/14 02:52:37;;;;;;;26.75;11.85;;;;;;;0.70;94.61;100925.16;6321140;28;20044;-72
2021/12/14 02:55:38;;;;;;;29.45;12.60;;;;;;;0.67;95.26;100919.19;6319886;28;20036;-73
2021/12/14 02:58:39;;;;;;;31.65;12.80;;;;;;;0.84;93.22;100921.63;6319953;28;20373;-73
2021/12/14 03:01:42;;;;;;;30.45;12.80;;;;;;;0.63;94.93;100920.91;6319862;28;20052;-72
2021/12/14 03:04:56;;;;;;;26.45;12.65;;;;;;;0.54;95.70;100923.53;6320941;28;20049;-72
2021/12/14 03:08:02;;;;;;;28.25;12.80;;;;;;;0.59;96.37;100925.19;6320711;28;20044;-72
2021/12/14 03:11:12;;;;;;;32.50;13.43;;;;;;;0.60;96.29;100920.94;6321489;28;20046;-72
2021/12/14 03:14:13;;;;;;;25.35;13.77;;;;;;;0.64;97.86;100919.19;6325808;28;20032;-73
2021/12/14 03:17:15;;;;;;;29.05;14.43;;;;;;;0.58;97.04;100922.66;6324637;28;20040;-73
2021/12/14 03:20:31;;;;;;;32.03;13.95;;;;;;;0.53;96.11;100917.53;6324840;28;20164;-73
2021/12/14 03:23:43;;;;;;;26.30;12.73;;;;;;;0.59;95.80;100927.78;6324512;28;20047;-72
2021/12/14 03:26:49;;;;;;;28.05;13.05;;;;;;;0.55;96.45;100925.22;6325635;28;20044;-73
2021/12/14 03:29:50;;;;;;;27.02;14.05;;;;;;;0.58;95.93;100928.66;6324213;28;20044;-73
2021/12/14 03:32:52;;;;;;;24.67;12.85;;;;;;;0.59;96.96;100926.91;6323984;28;20458;-72
2021/12/14 03:36:01;;;;;;;27.75;13.75;;;;;;;0.56;98.22;100926.97;6325324;28;20464;-73
2021/12/14 03:39:06;;;;;;;29.95;13.13;;;;;;;0.62;96.21;100926.03;6325272;28;20040;-73
2021/12/14 03:42:10;;;;;;;26.50;12.27;;;;;;;0.64;96.13;100929.47;6316170;28;20040;-73
2021/12/14 03:45:16;;;;;;;30.83;13.68;;;;;;;0.63;95.46;100926.03;6300146;28;20583;-72
2021/12/14 03:48:21;;;;;;;25.73;13.38;;;;;;;0.61;95.17;100927.78;6299699;28;20412;-72
2021/12/14 03:51:24;;;;;;;27.50;13.57;;;;;;;0.52;95.82;100930.41;6299832;28;20044;-72
2021/12/14 03:54:26;;;;;;;29.92;13.55;;;;;;;0.54;95.69;100937.22;6299598;28;20037;-72
2021/12/14 03:57:27;;;;;;;29.33;13.57;;;;;;;0.57;95.85;100942.34;6299660;28;20413;-73
2021/12/14 04:00:39;;;;;;;31.65;14.20;;;;;;;0.58;95.96;100938.91;6298195;28;20036;-74
2021/12/14 04:03:41;;;;;;;29.23;13.43;;;;;;;0.58;98.07;100938.06;6299568;28;20435;-74
2021/12/14 04:06:44;;;;;;;26.45;12.75;;;;;;;0.23;100.00;100944.25;6281608;28;20041;-74
2021/12/14 04:09:45;;;;;;;26.25;12.57;;;;;;;0.30;100.00;100939.94;6298089;28;20072;-73
2021/12/14 04:12:46;;;;;;;29.20;11.77;;;;;;;0.26;100.00;100938.22;6299231;28;20089;-73
2021/12/14 04:15:47;;;;;;;23.90;12.43;;;;;;;0.35;100.00;100935.59;6298305;28;20044;-72
2021/12/14 04:18:48;;;;;;;30.65;13.32;;;;;;;0.47;100.00;100937.25;6297910;28;20040;-72
2021/12/14 04:21:52;;;;;;;26.42;12.57;;;;;;;0.47;100.00;100940.69;6298007;28;20067;-72
2021/12/14 04:24:57;;;;;;;27.00;13.73;;;;;;;0.48;99.83;100941.56;6296975;28;20075;-72
2021/12/14 04:28:00;;;;;;;30.50;14.15;;;;;;;0.39;99.81;100940.75;6297667;28;20562;-72
2021/12/14 04:31:01;;;;;;;27.80;13.73;;;;;;;0.36;98.76;100942.47;6298744;28;20480;-72
2021/12/14 04:34:02;;;;;;;28.75;12.70;;;;;;;0.42;99.37;100950.13;6298993;28;20048;-72
2021/12/14 04:37:04;;;;;;;28.35;12.18;;;;;;;0.38;98.45;100945.88;6315077;28;20048;-72
2021/12/14 04:40:24;;;;;;;26.63;12.80;;;;;;;0.43;98.70;100951.81;6297449;28;20071;-72
2021/12/14 04:53:34;;;;;;;32.13;13.25;;;;;;;0.63;98.78;100964.56;6298897;28;20048;-72
2021/12/14 04:56:42;;;;;;;33.63;13.35;;;;;;;0.50;98.37;100966.34;6298995;28;20040;-72
2021/12/14 04:59:42;;;;;;;24.65;11.80;;;;;;;0.54;97.54;100967.22;6298872;28;20101;-72
2021/12/14 05:02:44;;;;;;;23.85;12.68;;;;;;;0.55;97.88;100964.59;6306621;28;20438;-73
2021/12/14 05:05:50;;;;;;;25.45;12.50;;;;;;;0.59;98.29;100968.88;6300742;28;20050;-73
2021/12/14 05:09:26;;;;;;;25.38;12.88;;;;;;;0.64;96.25;100971.44;6302034;28;20055;-72
2021/12/14 05:12:32;;;;;;;23.38;12.40;;;;;;;0.52;95.98;100969.78;6322906;28;20059;-72
2021/12/14 05:15:37;;;;;;;27.88;12.27;;;;;;;0.49;96.24;100968.94;6323680;28;20499;-72
2021/12/14 05:18:46;;;;;;;24.13;11.88;;;;;;;0.54;96.92;100969.78;6322980;28;20040;-72
2021/12/14 05:21:48;;;;;;;26.92;13.13;;;;;;;0.60;97.00;100980.00;6321595;28;20043;-73
2021/12/14 05:24:56;;;;;;;30.20;14.13;;;;;;;0.68;96.23;100990.22;6321686;28;20051;-72
2021/12/14 05:28:00;;;;;;;34.45;14.85;;;;;;;0.68;96.46;100979.94;6323003;28;20396;-73
2021/12/14 05:31:03;;;;;;;31.67;14.77;;;;;;;0.72;97.74;100979.06;6323151;28;20040;-73
2021/12/14 05:34:03;;;;;;;;;;;;;;;0.72;96.51;100979.94;6322290;28;20131;-73
2021/12/14 05:37:07;;;;;;;29.77;12.43;;;;;;;0.65;95.88;100974.84;6319765;28;19994;-73
2021/12/14 05:40:17;;;;;;;29.13;13.18;;;;;;;0.67;96.01;100981.69;6316397;28;20052;-73
2021/12/14 05:43:26;;;;;;;24.02;13.00;;;;;;;0.69;96.41;100979.94;6303327;28;20072;-73
2021/12/14 05:46:27;;;;;;;44.60;22.02;;;;;;;0.69;95.68;100979.09;6329131;28;20099;-73
2021/12/14 05:49:29;;;;;;;52.92;25.98;;;;;;;0.65;96.70;100978.25;6295216;28;20040;-73
2021/12/14 05:52:30;;;;;;;71.10;35.00;;;;;;;0.62;97.01;100980.84;6295310;28;20036;-73
2021/12/14 05:55:34;;;;;;;58.92;28.30;;;;;;;0.61;97.30;100974.00;6295383;28;20053;-73
2021/12/14 05:58:35;;;;;;;50.97;28.50;;;;;;;0.58;98.03;100981.75;6295305;28;20045;-73
2021/12/14 06:01:36;;;;;;;44.95;24.25;;;;;;;0.59;98.11;100991.97;6295114;28;20041;-74
2021/12/14 06:04:46;;;;;;;50.38;23.02;;;;;;;0.62;98.21;100993.69;6278685;28;20064;-73
2021/12/14 06:07:49;;;;;;;51.42;27.10;;;;;;;0.39;97.21;101002.38;6295442;28;20063;-73
2021/12/14 06:10:51;;;;;;;39.47;21.73;;;;;;;0.38;97.57;101003.22;6295113;28;20495;-73
2021/12/14 06:13:52;;;;;;;40.05;19.20;;;;;;;0.49;97.64;101005.72;6295001;28;20043;-73
2021/12/14 06:16:58;;;;;;;31.20;15.63;;;;;;;0.39;97.35;101009.19;6278445;28;20066;-72
2021/12/14 06:20:01;;;;;;;26.05;15.13;;;;;;;0.47;96.14;101011.72;6296134;28;20049;-73
2021/12/14 06:23:03;;;;;;;31.02;15.23;;;;;;;0.51;96.61;101014.28;6294996;28;20047;-73
2021/12/14 06:26:03;;;;;;;31.63;15.70;;;;;;;0.53;98.40;101016.84;6296453;28;20036;-73
2021/12/14 06:29:12;;;;;;;29.92;15.52;;;;;;;0.58;97.42;101022.84;6294752;28;20048;-73
2021/12/14 06:32:20;;;;;;;34.70;16.98;;;;;;;0.56;96.98;101016.84;6294604;28;20059;-73
2021/12/14 06:35:29;;;;;;;39.22;17.13;;;;;;;0.62;96.15;101029.66;6328509;28;20043;-73
2021/12/14 06:38:34;;;;;;;30.70;15.30;;;;;;;0.64;97.14;101016.78;6294652;28;20049;-73
2021/12/14 06:41:35;;;;;;;29.83;15.73;;;;;;;0.69;97.92;101022.78;6294598;28;20049;-73
2021/12/14 06:44:36;;;;;;;35.13;16.80;;;;;;;0.71;96.81;101021.06;6294583;28;20048;-74
2021/12/14 06:47:39;;;;;;;39.13;19.00;;;;;;;0.68;97.24;101023.63;6301946;28;20048;-73
2021/12/14 06:50:46;;;;;;;45.75;20.77;;;;;;;0.73;98.16;101022.75;6302744;28;20471;-73
2021/12/14 06:53:51;;;;;;;36.70;18.23;;;;;;;0.68;95.71;101027.06;6303979;28;20044;-74
2021/12/14 06:57:00;;;;;;;33.92;17.23;;;;;;;0.66;95.50;101026.22;6304080;28;20044;-74
2021/12/14 07:00:04;;;;;;;34.80;17.30;;;;;;;0.72;96.10;101035.59;6302920;28;20089;-73
2021/12/14 07:03:05;;;;;;;33.95;17.67;;;;;;;0.87;96.03;101032.97;6304016;28;20385;-74
2021/12/14 07:06:07;;;;;;;47.60;21.65;;;;;;;0.94;94.25;101041.47;6302709;28;20044;-74
2021/12/14 07:09:18;;;;;;;42.75;19.10;;;;;;;0.88;93.51;101044.94;6303774;28;20485;-73
2021/12/14 07:12:22;;;;;;;32.03;16.55;;;;;;;0.86;94.04;101050.94;6303624;28;20078;-73
2021/12/14 07:15:25;;;;;;;37.47;19.50;;;;;;;0.92;93.69;101056.06;6303800;28;20044;-72
2021/12/14 07:18:28;;;;;;;40.97;21.88;;;;;;;0.97;94.00;101057.75;6285819;28;20072;-73
2021/12/14 07:21:37;;;;;;;44.78;22.45;;;;;;;0.88;94.07;101046.66;6303747;28;20032;-73
2021/12/14 07:24:38;;;;;;;45.25;22.90;;;;;;;0.99;93.10;101061.16;6303679;28;20395;-73
2021/12/14 07:27:48;;;;;;;41.97;20.58;;;;;;;1.12;92.66;101061.94;6302413;28;20040;-74
2021/12/14 07:30:53;;;;;;;49.33;20.63;;;;;;;1.13;91.87;101057.63;6303350;28;20047;-73
2021/12/14 07:33:58;;;;;;;42.08;20.38;;;;;;;1.32;89.41;101061.81;6302433;28;20037;-73
2021/12/14 07:36:59;;;;;;;37.67;19.27;;;;;;;1.46;88.87;101071.13;6302294;28;20051;-74
2021/12/14 07:40:01;;;;;;;36.88;19.38;;;;;;;1.31;87.84;101072.94;6303462;28;20041;-73
2021/12/14 07:43:12;;;;;;;34.60;19.13;;;;;;;1.37;87.38;101074.63;6302279;28;20040;-73
2021/12/14 07:46:33;;;;;;;35.45;17.85;;;;;;;1.40;86.46;101072.91;6302330;28;20044;-73
2021/12/14 07:49:53;;;;;;;42.35;19.55;;;;;;;1.68;85.46;101074.41;6302802;28;20470;-73
2021/12/14 07:52:54;;;;;;;41.17;19.15;;;;;;;1.77;85.00;101069.19;6303454;28;20051;-73
2021/12/14 07:55:55;;;;;;;36.22;18.80;;;;;;;1.87;83.93;101075.09;6303126;28;20044;-73
2021/12/14 07:58:58;;;;;;;38.95;19.50;;;;;;;1.97;84.73;101080.16;6299103;28;20453;-73
2021/12/14 08:02:17;;;;;;;37.75;18.50;;;;;;;1.94;82.44;101075.03;6299278;28;20037;-73
2021/12/14 08:05:23;;;;;;;36.17;17.80;;;;;;;2.04;82.55;101077.50;6298045;28;20037;-74
2021/12/14 08:08:33;;;;;;;37.40;18.05;;;;;;;1.83;81.87;101071.69;6297808;28;20047;-74
2021/12/14 08:14:40;;;;;;;36.72;19.23;;;;;;;2.15;80.88;101083.44;6299046;28;20044;-74
2021/12/14 08:17:43;;;;;;;45.65;19.27;;;;;;;2.30;79.73;101074.69;6298973;28;20094;-74
2021/12/14 08:21:10;;;;;;;;;;;;;;;2.12;80.19;101068.00;6299211;28;20119;-74
2021/12/14 08:24:11;;;;;;;39.65;19.10;;;;;;;2.29;78.11;101070.44;6297705;28;19973;-74
2021/12/14 08:27:18;;;;;;;52.83;20.83;;;;;;;2.42;78.56;101075.41;6298703;28;20040;-74
2021/12/14 08:30:20;;;;;;;44.58;20.85;;;;;;;2.60;77.44;101073.50;6298574;28;20040;-74
2021/12/14 08:33:24;;;;;;;40.95;20.38;;;;;;;2.62;77.00;101070.03;6297244;28;20500;-74
2021/12/14 08:36:32;;;;;;;43.58;19.85;;;;;;;2.64;78.31;101070.03;6298533;28;20489;-74
2021/12/14 08:39:41;;;;;;;41.55;20.17;;;;;;;2.74;76.01;101070.75;6281640;28;20048;-74
2021/12/14 08:43:02;;;;;;;44.22;20.17;;;;;;;2.59;75.38;101057.19;6297220;28;20045;-74
2021/12/14 08:46:09;;;;;;;42.33;19.40;;;;;;;2.85;75.79;101070.63;6298386;28;20040;-74
2021/12/14 08:49:15;;;;;;;41.83;19.73;;;;;;;2.76;76.41;101075.03;6297074;28;20063;-73
2021/12/14 08:52:16;;;;;;;48.22;23.02;;;;;;;2.84;77.43;101074.91;6296808;28;20060;-74
2021/12/14 08:55:19;;;;;;;40.85;20.40;;;;;;;2.89;74.75;101072.28;6298045;28;20115;-74
2021/12/14 08:58:20;;;;;;;42.72;20.67;;;;;;;3.05;74.74;101070.34;6280012;28;20371;-74
2021/12/14 09:01:26;;;;;;;42.85;20.80;;;;;;;3.00;73.12;101058.38;6298168;28;20052;-74
2021/12/14 09:04:34;;;;;;;48.88;21.02;;;;;;;3.13;75.60;101059.06;6296743;28;20036;-74
2021/12/14 09:07:35;;;;;;;45.90;19.88;;;;;;;3.15;72.79;101064.19;6297984;28;20545;-74
2021/12/14 09:10:38;;;;;;;41.78;19.42;;;;;;;3.03;75.27;101052.34;6297014;28;20044;-74
2021/12/14 09:13:42;;;;;;;40.63;17.63;;;;;;;2.85;73.23;101043.13;6296528;28;20040;-74
2021/12/14 09:16:48;;;;;;;39.45;17.05;;;;;;;2.86;73.17;101039.66;6297502;28;20183;-74
2021/12/14 09:19:55;;;;;;;39.60;16.20;;;;;;;2.79;73.62;101035.47;6296291;28;20044;-74
2021/12/14 09:23:01;;;;;;;40.10;17.75;;;;;;;3.18;72.99;101036.63;6296204;28;20045;-74
2021/12/14 09:26:07;;;;;;;35.05;16.17;;;;;;;3.13;70.47;101030.69;6297526;28;20436;-74
2021/12/14 09:29:13;;;;;;;33.63;14.80;;;;;;;3.33;71.80;101032.13;6297253;28;20036;-74
2021/12/14 09:32:21;;;;;;;30.77;15.30;;;;;;;3.41;72.48;101027.69;6295761;28;20055;-74
2021/12/14 09:35:25;;;;;;;32.88;15.57;;;;;;;3.35;69.78;101031.22;6295860;28;20079;-74
2021/12/14 09:38:33;;;;;;;43.15;19.67;;;;;;;3.69;69.57;101027.25;6295678;28;20071;-74
2021/12/14 09:41:34;;;;;;;36.65;15.70;;;;;;;3.74;68.38;101022.84;6296879;28;20067;-74
2021/12/14 09:44:36;;;;;;;35.28;16.60;;;;;;;3.55;69.51;101030.91;6295564;28;20040;-74
2021/12/14 09:47:37;;;;;;;31.58;14.75;;;;;;;3.47;70.81;101024.16;6296811;28;20044;-74
2021/12/14 09:50:40;;;;;;;30.55;13.85;;;;;;;3.11;71.28;101026.41;6295469;28;20473;-74
2021/12/14 09:53:46;;;;;;;32.92;15.35;;;;;;;3.32;71.89;101020.94;6296586;28;20048;-75
2021/12/14 09:57:20;;;;;;;36.75;15.93;;;;;;;3.22;70.19;101024.53;6295387;28;20044;-74
2021/12/14 10:00:35;;;;;;;30.10;14.27;;;;;;;4.03;67.28;101010.25;6292280;28;20063;-74
2021/12/14 10:03:42;;;;;;;30.30;14.60;;;;;;;3.65;68.42;101012.69;6296385;28;20044;-75
2021/12/14 10:06:43;;;;;;;30.38;13.88;;;;;;;3.67;68.60;101006.63;6295337;28;20037;-74
2021/12/14 10:09:48;;;;;;;29.10;13.27;;;;;;;3.68;68.99;101010.03;6296262;28;20036;-74
2021/12/14 10:12:54;;;;;;;31.58;13.85;;;;;;;4.11;67.70;101014.44;6296336;28;20492;-75
2021/12/14 10:15:57;;;;;;;28.67;13.65;;;;;;;4.12;66.05;101004.09;6295037;28;20044;-74
2021/12/14 10:19:03;;;;;;;31.65;14.23;;;;;;;4.52;66.78;100999.84;6296245;28;20151;-74
2021/12/14 10:22:09;;;;;;;31.25;14.65;;;;;;;4.75;63.67;101002.78;6295270;28;20049;-74
2021/12/14 10:25:14;;;;;;;28.65;12.75;;;;;;;4.58;66.48;101003.16;6296118;28;20044;-75
2021/12/14 10:28:16;;;;;;;34.65;13.95;;;;;;;4.59;63.89;101009.16;6295967;28;20040;-73
2021/12/14 10:31:29;;;;;;;33.35;14.55;;;;;;;4.41;63.53;101008.66;6278085;28;20076;-74
2021/12/14 10:34:35;;;;;;;30.02;14.07;;;;;;;4.83;63.75;100990.53;6295997;28;20047;-74
2021/12/14 10:37:56;;;;;;;33.65;15.65;;;;;;;4.56;66.05;100991.16;6294881;28;20045;-74
2021/12/14 10:44:37;;;;;;;29.45;13.80;;;;;;;4.80;63.84;101000.97;6295689;28;20562;-74
2021/12/14 10:47:39;;;;;;;33.70;14.32;;;;;;;5.00;63.44;100999.66;6294740;28;20063;-74
2021/12/14 10:50:42;;;;;;;34.83;16.02;;;;;;;4.56;64.61;100996.31;6294517;28;20041;-74
2021/12/14 10:53:47;;;;;;;37.47;16.55;;;;;;;4.87;64.95;101006.84;6295711;28;20448;-74
2021/12/14 10:56:58;;;;;;;34.20;15.05;;;;;;;4.53;64.35;101006.69;6294736;28;20472;-74
2021/12/14 10:59:59;;;;;;;34.25;15.93;;;;;;;4.84;66.53;100999.16;6295854;28;20118;-74
2021/12/14 11:03:11;;;;;;;32.17;15.00;;;;;;;4.88;64.44;100997.34;6295601;28;20143;-73
2021/12/14 11:06:15;;;;;;;34.23;14.77;;;;;;;4.58;65.31;100989.38;6294521;28;20052;-74
2021/12/14 11:09:52;;;;;;;29.65;14.82;;;;;;;4.68;64.61;100992.63;6294322;28;20448;-74
2021/12/14 11:12:58;;;;;;;30.08;13.10;;;;;;;4.61;65.67;100979.84;6295530;28;20102;-74
2021/12/14 11:15:59;;;;;;;29.42;13.88;;;;;;;4.87;65.34;100988.75;6295553;28;20504;-74
2021/12/14 11:19:04;;;;;;;31.92;14.70;;;;;;;4.80;67.11;100984.59;6295553;28;20044;-74
2021/12/14 11:22:14;;;;;;;34.55;16.15;;;;;;;5.16;64.96;100982.88;6295258;28;20040;-74
2021/12/14 11:25:20;;;;;;;32.80;14.50;;;;;;;4.79;65.69;100981.16;6295450;28;20126;-74
2021/12/14 11:28:50;;;;;;;28.00;13.82;;;;;;;4.67;65.11;100976.25;6293991;28;20041;-75
2021/12/14 11:31:54;;;;;;;35.17;14.43;;;;;;;4.57;66.37;100965.28;6327891;28;20060;-75
2021/12/14 11:34:55;;;;;;;26.42;12.90;;;;;;;4.57;66.12;100970.44;6298647;28;20063;-75
2021/12/14 11:38:01;;;;;;;34.53;15.63;;;;;;;4.77;66.82;100982.91;6298760;28;20040;-75
2021/12/14 11:41:26;;;;;;;30.25;14.73;;;;;;;4.82;66.41;100981.09;6299842;28;20055;-75
2021/12/14 11:44:41;;;;;;;27.17;12.90;;;;;;;4.99;65.04;100970.34;6299784;28;20048;-74
2021/12/14 11:47:51;;;;;;;32.83;14.18;;;;;;;4.99;66.72;100969.50;6299836;28;20047;-74
2021/12/14 11:50:51;;;;;;;29.13;13.20;;;;;;;4.57;67.25;100962.69;6299692;28;20562;-74
2021/12/14 11:53:54;;;;;;;27.23;13.88;;;;;;;4.74;68.61;100967.47;6298166;28;20064;-74
2021/12/14 11:56:55;;;;;;;25.58;13.38;;;;;;;4.76;69.13;100959.69;6299414;28;20032;-74
2021/12/14 12:00:06;;;;;;;25.25;12.52;;;;;;;4.32;71.25;100957.16;6299417;28;20052;-74
2021/12/14 12:03:23;;;;;;;29.23;13.45;;;;;;;4.47;72.07;100949.97;6299268;28;20105;-75
2021/12/14 12:09:50;;;;;;;25.05;12.57;;;;;;;4.40;70.63;100952.69;6299152;28;20420;-74
2021/12/14 12:12:50;;;;;;;26.50;13.45;;;;;;;4.20;70.69;100953.13;6298938;28;20045;-74
2021/12/14 12:15:52;;;;;;;27.77;14.38;;;;;;;3.72;72.45;100954.91;6297725;28;20114;-74
2021/12/14 12:19:14;;;;;;;27.40;13.63;;;;;;;3.82;71.78;100957.28;6281138;28;20123;-74
2021/12/14 12:22:15;;;;;;;30.13;13.80;;;;;;;3.96;73.33;100964.78;6298831;28;20115;-74
2021/12/14 12:25:48;;;;;;;34.20;14.75;;;;;;;3.89;72.21;100960.63;6297422;28;20480;-74
2021/12/14 12:28:51;;;;;;;28.23;13.95;;;;;;;3.69;72.03;100966.16;6297114;28;20048;-73
2021/12/14 12:31:59;;;;;;;30.33;14.15;;;;;;;3.94;70.92;100966.53;6298468;28;20087;-74
2021/12/14 12:35:01;;;;;;;35.72;13.65;;;;;;;3.98;70.52;100963.00;6297302;28;20465;-74
2021/12/14 12:38:21;;;;;;;34.13;13.93;;;;;;;4.09;71.35;100962.81;6297566;28;20056;-74
2021/12/14 12:41:44;;;;;;;36.25;14.73;;;;;;;4.16;69.57;100958.34;6297155;28;20309;-74
2021/12/14 12:44:45;;;;;;;;;;;;;;;4.32;69.88;100969.25;6297921;28;20036;-74
2021/12/14 12:47:45;;;;;;;31.48;13.90;;;;;;;4.14;70.93;100971.31;6297055;28;19920;-74
2021/12/14 12:50:49;;;;;;;30.63;14.32;;;;;;;3.96;70.80;100966.50;6298190;28;20075;-74
2021/12/14 12:53:50;;;;;;;34.95;14.45;;;;;;;3.97;70.01;100971.63;6279986;28;20700;-74
2021/12/14 12:57:27;;;;;;;35.63;14.73;;;;;;;4.02;71.07;100972.41;6296859;28;20444;-74
2021/12/14 13:00:41;;;;;;;29.90;13.88;;;;;;;3.93;71.18;100974.31;6297843;28;20045;-74
2021/12/14 13:03:43;;;;;;;29.83;14.43;;;;;;;3.86;72.59;100963.25;6296674;28;20051;-74
2021/12/14 13:06:44;;;;;;;34.58;15.90;;;;;;;3.94;73.63;100958.78;6296405;28;20508;-74
2021/12/14 13:10:03;;;;;;;30.33;14.73;;;;;;;3.81;73.27;100971.09;6279987;28;20041;-73
2021/12/14 13:13:19;;;;;;;30.90;15.65;;;;;;;3.80;73.32;100966.78;6296352;28;20045;-74
2021/12/14 13:16:23;;;;;;;31.20;15.70;;;;;;;3.70;74.13;100974.72;6296301;28;20044;-74
2021/12/14 13:19:26;;;;;;;35.17;15.65;;;;;;;3.64;73.21;100970.53;6296213;28;20071;-74
2021/12/14 13:22:27;;;;;;;33.33;15.35;;;;;;;3.70;73.48;100972.16;6297347;28;20098;-74
2021/12/14 13:25:39;;;;;;;35.47;14.88;;;;;;;3.54;73.59;100979.31;6295923;28;20431;-74
2021/12/14 13:28:40;;;;;;;33.20;15.52;;;;;;;3.50;72.79;100977.66;6296026;28;20059;-74
2021/12/14 13:31:52;;;;;;;30.05;14.85;;;;;;;3.27;74.09;100984.03;6296968;28;20053;-73
2021/12/14 13:35:11;;;;;;;34.72;15.35;;;;;;;3.29;74.02;100981.44;6297140;28;20093;-74
2021/12/14 13:38:12;;;;;;;34.40;15.85;;;;;;;3.37;74.42;100977.00;6297070;28;20059;-73
2021/12/14 13:41:41;;;;;;;31.50;14.77;;;;;;;3.28;74.33;100993.50;6279369;28;20048;-73
2021/12/14 13:44:50;;;;;;;39.92;17.33;;;;;;;3.08;75.39;100988.63;6295750;28;20546;-73
2021/12/14 13:47:52;;;;;;;43.05;17.92;;;;;;;3.10;76.71;100988.63;6296725;28;20119;-73
2021/12/14 13:51:05;;;;;;;37.38;17.38;;;;;;;2.99;76.77;100992.22;6307673;28;20040;-74
2021/12/14 13:54:07;;;;;;;37.70;17.92;;;;;;;2.81;76.74;100998.47;6309091;28;20044;-73
2021/12/14 13:57:08;;;;;;;33.33;15.50;;;;;;;2.70;77.47;100995.22;6310597;28;20416;-73
2021/12/14 14:00:15;;;;;;;32.80;14.85;;;;;;;2.64;78.58;101005.59;6309108;28;20051;-73
2021/12/14 14:03:16;;;;;;;30.00;14.13;;;;;;;2.58;78.17;101000.53;6315536;28;20040;-73
2021/12/14 14:06:20;;;;;;;33.10;15.50;;;;;;;2.56;78.16;101000.53;6305296;28;20131;-74
2021/12/14 14:09:28;;;;;;;41.15;18.40;;;;;;;2.45;77.76;100996.38;6296462;28;20036;-74
2021/12/14 14:12:29;;;;;;;36.10;16.35;;;;;;;2.30;79.40;101005.16;6296958;28;20047;-74
2021/12/14 14:15:34;;;;;;;39.63;17.00;;;;;;;2.38;79.39;100999.03;6278721;28;20040;-74
2021/12/14 14:18:45;;;;;;;36.33;16.70;;;;;;;2.28;79.81;101002.59;6295228;28;20044;-74
2021/12/14 14:21:54;;;;;;;40.60;16.30;;;;;;;2.17;79.72;100999.31;6296348;28;20075;-74
2021/12/14 14:25:00;;;;;;;35.00;16.55;;;;;;;2.08;80.21;101005.41;6296464;28;20036;-73
2021/12/14 14:28:03;;;;;;;45.33;19.33;;;;;;;2.03;80.61;101002.00;6296101;28;20048;-74
2021/12/14 14:31:07;;;;;;;35.92;17.30;;;;;;;2.10;80.42;101005.38;6294718;28;20041;-74
2021/12/14 14:34:17;;;;;;;44.80;18.45;;;;;;;1.97;82.22;101008.06;6296027;28;20041;-73
2021/12/14 14:37:44;;;;;;;41.10;18.67;;;;;;;1.86;82.12;101004.78;6309548;28;20047;-73
2021/12/14 14:40:45;;;;;;;73.15;26.65;;;;;;;1.85;82.90;101005.63;6320792;28;20059;-73
2021/12/14 14:44:11;;;;;;;66.13;26.83;;;;;;;1.74;83.89;101010.88;6302986;28;20142;-74
2021/12/14 14:47:29;;;;;;;70.30;27.10;;;;;;;1.70;84.12;101023.78;6315513;28;20049;-73